Portada
METAR-TAF:

METAR-TAF

Aeroports :

Birmingham, Alabama, Estats Units d'Amèrica

latitud: 33-33-56N, longitud: 086-44-42W, altitud: 196 m

Observació

L'informe es va fer fa 37 minuts, a les 06:53 UTC
Vent 3 kt del Nord/Nord-Est
Temperatura -2°C
Humitat 59%
Pressió 1030 hPa
Visibilitat: 16.1 km
Cel clar

METAR: KBHM 220653Z 02003KT 10SM CLR M02/M09 A3041 RMK AO2 SLP302 T10221089

Hora: 01:30 (07:30 UTC)

Pronòstic

L'informe es va fer fa 1 hora i 57 minuts, a les 05:33 UTC
Pronòstic vàlid del 22 a les 06 UTC al 23 a les 06 UTC
Vent kt del Nord
Visibilitat: 10 km
Cel clar
A partir de les 22 a les 1600 UTC
Vent 7 kt del Sud-Est
Visibilitat: 10 km
Cel ennuvolat a una alçada de 25000 ft
A partir de les 23 a les 0000 UTC
Vent 2 kt del Est/Sud-Est
Visibilitat: 10 km
Cel cobert a una alçada de 25000 ft

TAF: KBHM 220533Z 2206/2306 00000KT P6SM SKC FM221600 13007KT P6SM BKN250 FM230000 12002KT P6SM OVC250

Observacions i pronòstics meteorològics de més de 4000 aeroports (METAR i TAF).

Les estacions disponibles són els punts grocs i vermells al mapa.

Posi el ratolí al punt desitjat per veure el nom de l'estació.

Feu clic per veure les observacions i els pronòstics meteorològics.

Per canviar el mapa: feu clic els botons verds amb una creu de color negre per apropar; al botó verd amb un guió per allunyar la imatge; o en les fletxes verdes per a mapes adjacents.


METAR-TAF: